createdAt,value
2022-10-22T00:02:33.792Z,3.70
2022-10-22T00:07:38.187Z,4.10
2022-10-22T00:12:41.894Z,3.70
2022-10-22T00:17:45.313Z,4.60
2022-10-22T00:27:58.496Z,4.80
2022-10-22T00:33:05.905Z,4.40
2022-10-22T00:38:09.331Z,4.50
2022-10-22T00:43:16.161Z,4.10
2022-10-22T00:48:25.694Z,4.90
2022-10-22T00:53:34.868Z,3.90
2022-10-22T00:58:44.233Z,3.90
2022-10-22T01:03:48.521Z,4.00
2022-10-22T01:09:01.102Z,3.40
2022-10-22T01:14:16.747Z,4.00
2022-10-22T01:19:34.183Z,4.50
2022-10-22T01:24:52.957Z,3.60
2022-10-22T01:30:06.867Z,3.80
2022-10-22T01:35:15.991Z,3.70
2022-10-22T01:40:20.407Z,3.70
2022-10-22T01:45:24.028Z,3.80
2022-10-22T01:50:39.004Z,3.80
2022-10-22T01:56:29.086Z,3.70
2022-10-22T02:01:52.767Z,3.30
2022-10-22T02:07:00.789Z,3.80
2022-10-22T02:12:08.384Z,3.80
2022-10-22T02:17:18.545Z,3.90
2022-10-22T02:22:22.509Z,4.00
2022-10-22T02:27:34.833Z,3.90
2022-10-22T02:32:54.313Z,3.60
2022-10-22T02:37:59.991Z,3.50
2022-10-22T02:43:06.274Z,3.50
2022-10-22T02:48:13.240Z,3.50
2022-10-22T02:53:17.760Z,3.60
2022-10-22T02:58:24.947Z,3.20
2022-10-22T03:03:29.661Z,3.90
2022-10-22T03:08:33.932Z,3.10
2022-10-22T03:13:38.440Z,3.20
2022-10-22T03:18:48.110Z,3.20
2022-10-22T03:23:54.492Z,3.20
2022-10-22T03:28:58.425Z,3.10
2022-10-22T03:34:01.841Z,3.10
2022-10-22T03:39:06.282Z,3.50
2022-10-22T03:44:09.905Z,3.40
2022-10-22T03:49:13.424Z,3.30
2022-10-22T03:54:17.475Z,3.60
2022-10-22T03:59:20.979Z,2.60
2022-10-22T04:04:24.398Z,3.10
2022-10-22T04:09:27.946Z,2.50
2022-10-22T04:14:34.306Z,3.20
2022-10-22T04:19:38.964Z,3.20
2022-10-22T04:24:42.529Z,2.60
2022-10-22T04:29:46.095Z,4.10
2022-10-22T04:34:49.718Z,3.00
2022-10-22T04:39:53.150Z,2.80
2022-10-22T04:44:56.657Z,3.50
2022-10-22T04:50:00.209Z,2.80
2022-10-22T04:55:04.112Z,4.10
2022-10-22T05:00:10.807Z,3.00
2022-10-22T05:05:22.249Z,3.60
2022-10-22T05:10:26.541Z,3.00
2022-10-22T05:15:29.965Z,2.80
2022-10-22T05:20:33.382Z,3.40
2022-10-22T05:25:41.698Z,3.00
2022-10-22T05:30:54.371Z,3.90
2022-10-22T05:35:58.887Z,2.60
2022-10-22T05:41:05.756Z,2.30
2022-10-22T05:46:12.578Z,3.80
2022-10-22T05:51:16.305Z,2.90
2022-10-22T05:56:20.028Z,2.50
2022-10-22T06:01:28.678Z,3.30
2022-10-22T06:06:43.756Z,2.70
2022-10-22T06:11:47.376Z,3.20
2022-10-22T06:16:51.712Z,2.80
2022-10-22T06:21:55.279Z,3.00
2022-10-22T06:26:58.848Z,3.40
2022-10-22T06:32:05.222Z,2.70
2022-10-22T06:37:10.930Z,3.20
2022-10-22T06:42:24.485Z,4.00
2022-10-22T06:47:40.526Z,3.20
2022-10-22T06:52:56.617Z,3.30
2022-10-22T06:58:00.918Z,3.00
2022-10-22T07:03:04.331Z,3.10
2022-10-22T07:08:08.489Z,3.60
2022-10-22T07:13:17.518Z,4.00
2022-10-22T07:18:22.159Z,4.80
2022-10-22T07:23:35.534Z,4.30
2022-10-22T07:28:41.247Z,4.10
2022-10-22T07:34:10.372Z,4.20
2022-10-22T07:39:20.563Z,4.50
2022-10-22T07:44:25.507Z,3.80
2022-10-22T07:49:31.483Z,3.90
2022-10-22T07:54:35.011Z,4.30
2022-10-22T07:59:41.496Z,4.00
2022-10-22T08:04:45.139Z,4.30
2022-10-22T08:09:49.969Z,5.40
2022-10-22T08:14:57.659Z,5.50
2022-10-22T08:20:02.137Z,5.30
2022-10-22T08:25:15.776Z,5.70
2022-10-22T08:30:19.734Z,5.00
2022-10-22T08:35:25.788Z,6.30
2022-10-22T08:40:42.263Z,4.30
2022-10-22T08:45:55.035Z,5.20
2022-10-22T08:51:14.799Z,5.80
2022-10-22T08:56:27.255Z,4.80
2022-10-22T09:02:18.906Z,5.10
2022-10-22T09:07:53.867Z,4.80
2022-10-22T09:12:58.656Z,4.80
2022-10-22T09:18:42.559Z,4.60
2022-10-22T09:24:18.458Z,4.60
2022-10-22T09:29:29.753Z,4.80
2022-10-22T09:39:42.643Z,4.90
2022-10-22T09:44:55.150Z,4.90
2022-10-22T09:50:27.122Z,5.50
2022-10-22T09:55:40.777Z,4.40
2022-10-22T10:01:08.757Z,5.10
2022-10-22T10:06:20.061Z,5.00
2022-10-22T10:11:35.763Z,4.80
2022-10-22T10:17:10.490Z,4.80
2022-10-22T10:23:01.386Z,4.20
2022-10-22T10:28:28.368Z,4.40
2022-10-22T10:33:47.008Z,5.50
2022-10-22T10:39:09.870Z,5.00
2022-10-22T10:45:06.513Z,6.00
2022-10-22T10:50:47.804Z,4.50
2022-10-22T10:56:16.274Z,5.10
2022-10-22T11:02:36.338Z,5.20
2022-10-22T11:07:55.931Z,5.90
2022-10-22T11:13:23.358Z,4.20
2022-10-22T11:18:50.153Z,5.50
2022-10-22T11:24:18.967Z,4.70
2022-10-22T11:29:29.387Z,4.80
2022-10-22T11:35:01.846Z,5.00
2022-10-22T11:40:57.699Z,4.60
2022-10-22T11:46:21.295Z,5.20
2022-10-22T11:51:43.233Z,5.20
2022-10-22T11:57:03.650Z,6.70
2022-10-22T12:02:44.016Z,5.30
2022-10-22T12:08:21.725Z,5.70
2022-10-22T12:13:53.104Z,5.40
2022-10-22T12:19:11.006Z,5.30
2022-10-22T12:24:22.225Z,5.30
2022-10-22T12:29:27.062Z,5.30
2022-10-22T12:34:34.874Z,5.30
2022-10-22T12:39:47.102Z,4.80
2022-10-22T12:45:05.660Z,4.40
2022-10-22T12:50:20.866Z,5.50
2022-10-22T12:55:34.599Z,5.50
2022-10-22T13:00:51.016Z,6.20
2022-10-22T13:05:59.138Z,5.30
2022-10-22T13:11:13.575Z,5.10
2022-10-22T13:16:31.765Z,4.60
2022-10-22T13:22:04.351Z,5.70
2022-10-22T13:27:09.914Z,5.00
2022-10-22T13:32:32.879Z,4.50
2022-10-22T13:37:39.955Z,4.20
2022-10-22T13:42:47.813Z,5.00
2022-10-22T13:47:54.187Z,4.60
2022-10-22T13:53:00.790Z,5.10
2022-10-22T13:58:11.030Z,3.70
2022-10-22T14:03:21.822Z,4.40
2022-10-22T14:08:27.313Z,4.50
2022-10-22T14:13:33.075Z,5.10
2022-10-22T14:18:36.799Z,3.90
2022-10-22T14:23:42.477Z,6.20
2022-10-22T14:29:08.679Z,4.90
2022-10-22T14:34:12.479Z,4.80
2022-10-22T14:39:27.314Z,4.20
2022-10-22T14:44:35.030Z,4.30
2022-10-22T14:49:39.368Z,5.10
2022-10-22T14:54:51.485Z,4.00
2022-10-22T15:00:07.696Z,3.60
2022-10-22T15:05:40.853Z,4.50
2022-10-22T15:10:59.259Z,4.10
2022-10-22T15:16:06.586Z,4.50
2022-10-22T15:21:19.364Z,4.30
2022-10-22T15:26:23.017Z,4.00
2022-10-22T15:31:51.382Z,3.80
2022-10-22T15:36:57.236Z,4.50
2022-10-22T15:42:00.699Z,4.10
2022-10-22T15:47:05.244Z,4.70
2022-10-22T15:52:10.265Z,3.70
2022-10-22T15:57:24.973Z,4.20
2022-10-22T16:02:34.226Z,3.80
2022-10-22T16:07:41.529Z,4.00
2022-10-22T16:13:02.144Z,3.80
2022-10-22T16:18:05.867Z,4.20
2022-10-22T16:23:09.901Z,3.90
2022-10-22T16:28:14.346Z,4.00
2022-10-22T16:33:20.625Z,3.70
2022-10-22T16:38:24.049Z,3.70
2022-10-22T16:43:29.714Z,4.30
2022-10-22T16:48:34.158Z,3.80
2022-10-22T16:53:37.683Z,3.60
2022-10-22T16:58:48.238Z,4.30
2022-10-22T17:03:53.824Z,3.80
2022-10-22T17:08:57.723Z,4.60
2022-10-22T17:14:09.875Z,3.70
2022-10-22T17:19:15.994Z,4.30
2022-10-22T17:24:20.291Z,4.40
2022-10-22T17:29:26.133Z,4.10
2022-10-22T17:34:53.264Z,4.20
2022-10-22T17:40:26.138Z,3.80
2022-10-22T17:45:29.634Z,5.30
2022-10-22T17:50:33.158Z,3.50
2022-10-22T17:55:36.596Z,4.00
2022-10-22T18:00:40.023Z,4.60
2022-10-22T18:05:43.617Z,4.40
2022-10-22T18:11:04.781Z,4.80
2022-10-22T18:16:10.922Z,3.80
2022-10-22T18:21:16.046Z,4.30
2022-10-22T18:26:22.928Z,4.00
2022-10-22T18:31:33.051Z,4.20
2022-10-22T18:36:37.794Z,3.50
2022-10-22T18:41:44.463Z,3.40
2022-10-22T18:46:49.648Z,4.20
2022-10-22T18:52:11.238Z,3.70
2022-10-22T18:57:22.483Z,3.60
2022-10-22T19:02:30.264Z,4.30
2022-10-22T19:07:36.989Z,3.90
2022-10-22T19:12:41.685Z,3.60
2022-10-22T19:18:06.142Z,4.00
2022-10-22T19:23:31.049Z,3.70
2022-10-22T19:28:45.191Z,4.00
2022-10-22T19:33:53.438Z,4.20
2022-10-22T19:39:00.788Z,3.80
2022-10-22T19:44:34.562Z,3.90
2022-10-22T19:49:49.536Z,4.00
2022-10-22T20:00:23.489Z,4.00
2022-10-22T20:05:35.913Z,3.80
2022-10-22T20:10:44.845Z,4.10
2022-10-22T20:16:09.931Z,4.20
2022-10-22T20:21:45.437Z,4.10
2022-10-22T20:27:17.215Z,4.80
2022-10-22T20:32:25.315Z,3.50
2022-10-22T20:37:34.740Z,3.80
2022-10-22T20:42:58.150Z,4.20
2022-10-22T20:48:13.748Z,4.20
2022-10-22T21:00:17.084Z,3.90
2022-10-22T21:05:31.264Z,3.60
2022-10-22T21:11:07.357Z,4.40
2022-10-22T21:17:01.965Z,3.60
2022-10-22T21:34:03.977Z,4.00
2022-10-22T21:39:42.116Z,4.00
2022-10-22T21:45:12.069Z,4.20
2022-10-22T21:50:51.477Z,3.30
2022-10-22T21:56:33.635Z,4.20
2022-10-22T22:02:22.181Z,3.80
2022-10-22T22:08:05.715Z,3.50
2022-10-22T22:13:29.025Z,3.80
2022-10-22T22:18:59.501Z,4.00
2022-10-22T22:24:15.411Z,4.50
2022-10-22T22:29:21.598Z,3.90
2022-10-22T22:34:36.608Z,3.70
2022-10-22T22:39:40.405Z,3.80
2022-10-22T22:44:44.765Z,3.90
2022-10-22T22:49:48.271Z,3.60
2022-10-22T22:54:53.323Z,4.30
2022-10-22T22:59:59.315Z,3.90
2022-10-22T23:05:04.270Z,3.80
2022-10-22T23:10:13.093Z,3.70
2022-10-22T23:15:16.513Z,4.70
2022-10-22T23:20:23.006Z,4.40
2022-10-22T23:25:26.623Z,5.00
2022-10-22T23:30:34.004Z,3.70
2022-10-22T23:35:41.051Z,3.80
2022-10-22T23:40:48.925Z,4.40
2022-10-22T23:45:52.887Z,4.90
2022-10-22T23:50:56.322Z,4.30
2022-10-22T23:56:09.408Z,3.30
